sensor_id;sensor_type;location;lat;lon;timestamp;pressure;altitude;pressure_sealevel;temperature;humidity
75290;BME280;63883;48.996;20.804;2023-05-07T00:00:02;96552.84;;;9.46;100.00
75290;BME280;63883;48.996;20.804;2023-05-07T00:02:28;96562.19;;;9.45;100.00
75290;BME280;63883;48.996;20.804;2023-05-07T00:04:55;96564.75;;;9.45;100.00
75290;BME280;63883;48.996;20.804;2023-05-07T00:07:20;96554.63;;;9.44;100.00
75290;BME280;63883;48.996;20.804;2023-05-07T00:09:46;96551.19;;;9.45;100.00
75290;BME280;63883;48.996;20.804;2023-05-07T00:12:12;96558.78;;;9.46;100.00
75290;BME280;63883;48.996;20.804;2023-05-07T00:14:38;96557.03;;;9.50;100.00
75290;BME280;63883;48.996;20.804;2023-05-07T00:17:03;96553.50;;;9.54;100.00
75290;BME280;63883;48.996;20.804;2023-05-07T00:19:29;96555.06;;;9.59;100.00
75290;BME280;63883;48.996;20.804;2023-05-07T00:21:55;96551.59;;;9.63;100.00
75290;BME280;63883;48.996;20.804;2023-05-07T00:24:22;96550.81;;;9.60;100.00
75290;BME280;63883;48.996;20.804;2023-05-07T00:26:48;96551.56;;;9.65;100.00
75290;BME280;63883;48.996;20.804;2023-05-07T00:29:13;96554.03;;;9.68;100.00
75290;BME280;63883;48.996;20.804;2023-05-07T00:31:39;96557.44;;;9.67;100.00
75290;BME280;63883;48.996;20.804;2023-05-07T00:34:05;96555.75;;;9.66;100.00
75290;BME280;63883;48.996;20.804;2023-05-07T00:36:31;96558.38;;;9.64;100.00
75290;BME280;63883;48.996;20.804;2023-05-07T00:38:59;96557.53;;;9.64;100.00
75290;BME280;63883;48.996;20.804;2023-05-07T00:41:25;96545.56;;;9.66;100.00
75290;BME280;63883;48.996;20.804;2023-05-07T00:43:52;96551.44;;;9.69;100.00
75290;BME280;63883;48.996;20.804;2023-05-07T00:46:20;96551.31;;;9.74;100.00
75290;BME280;63883;48.996;20.804;2023-05-07T00:48:47;96543.66;;;9.75;100.00
75290;BME280;63883;48.996;20.804;2023-05-07T00:51:13;96547.84;;;9.78;100.00
75290;BME280;63883;48.996;20.804;2023-05-07T00:53:39;96544.28;;;9.85;100.00
75290;BME280;63883;48.996;20.804;2023-05-07T00:56:06;96546.78;;;9.87;100.00
75290;BME280;63883;48.996;20.804;2023-05-07T00:58:33;96553.66;;;9.83;100.00
75290;BME280;63883;48.996;20.804;2023-05-07T01:00:59;96551.16;;;9.80;100.00
75290;BME280;63883;48.996;20.804;2023-05-07T01:03:25;96553.84;;;9.75;100.00
75290;BME280;63883;48.996;20.804;2023-05-07T01:05:52;96559.78;;;9.76;100.00
75290;BME280;63883;48.996;20.804;2023-05-07T01:08:18;96551.31;;;9.74;100.00
75290;BME280;63883;48.996;20.804;2023-05-07T01:10:45;96551.47;;;9.68;100.00
75290;BME280;63883;48.996;20.804;2023-05-07T01:13:12;96551.56;;;9.65;100.00
75290;BME280;63883;48.996;20.804;2023-05-07T01:15:39;96562.66;;;9.62;100.00
75290;BME280;63883;48.996;20.804;2023-05-07T01:18:06;96561.00;;;9.60;100.00
75290;BME280;63883;48.996;20.804;2023-05-07T01:20:32;96559.50;;;9.51;100.00
75290;BME280;63883;48.996;20.804;2023-05-07T01:23:00;96566.41;;;9.46;100.00
75290;BME280;63883;48.996;20.804;2023-05-07T01:25:26;96569.91;;;9.42;100.00
75290;BME280;63883;48.996;20.804;2023-05-07T01:27:52;96575.19;;;9.34;100.00
75290;BME280;63883;48.996;20.804;2023-05-07T01:30:18;96573.56;;;9.30;100.00
75290;BME280;63883;48.996;20.804;2023-05-07T01:33:08;96573.56;;;9.30;100.00
75290;BME280;63883;48.996;20.804;2023-05-07T01:35:38;96575.25;;;9.31;100.00
75290;BME280;63883;48.996;20.804;2023-05-07T01:38:06;96575.78;;;9.44;100.00
75290;BME280;63883;48.996;20.804;2023-05-07T01:40:33;96580.69;;;9.53;100.00
75290;BME280;63883;48.996;20.804;2023-05-07T01:43:04;96578.06;;;9.58;100.00
75290;BME280;63883;48.996;20.804;2023-05-07T01:45:31;96574.53;;;9.62;100.00
75290;BME280;63883;48.996;20.804;2023-05-07T01:47:58;96574.50;;;9.63;100.00
75290;BME280;63883;48.996;20.804;2023-05-07T01:50:25;96565.94;;;9.66;100.00
75290;BME280;63883;48.996;20.804;2023-05-07T01:52:51;96572.53;;;9.74;100.00
75290;BME280;63883;48.996;20.804;2023-05-07T01:55:17;96569.00;;;9.80;100.00
75290;BME280;63883;48.996;20.804;2023-05-07T01:57:43;96572.19;;;9.88;100.00
75290;BME280;63883;48.996;20.804;2023-05-07T02:00:08;96573.84;;;9.91;100.00
75290;BME280;63883;48.996;20.804;2023-05-07T02:02:35;96585.81;;;9.87;100.00
75290;BME280;63883;48.996;20.804;2023-05-07T02:05:01;96580.72;;;9.87;100.00
75290;BME280;63883;48.996;20.804;2023-05-07T02:07:27;96582.31;;;9.91;100.00
75290;BME280;63883;48.996;20.804;2023-05-07T02:09:53;96578.97;;;9.89;100.00
75290;BME280;63883;48.996;20.804;2023-05-07T02:12:21;96574.72;;;9.90;100.00
75290;BME280;63883;48.996;20.804;2023-05-07T02:14:47;96575.56;;;9.90;100.00
75290;BME280;63883;48.996;20.804;2023-05-07T02:17:13;96577.91;;;9.98;100.00
75290;BME280;63883;48.996;20.804;2023-05-07T02:19:38;96567.72;;;9.98;100.00
75290;BME280;63883;48.996;20.804;2023-05-07T02:22:04;96574.56;;;9.96;100.00
75290;BME280;63883;48.996;20.804;2023-05-07T02:24:29;96567.00;;;9.93;100.00
75290;BME280;63883;48.996;20.804;2023-05-07T02:26:55;96572.13;;;9.91;100.00
75290;BME280;63883;48.996;20.804;2023-05-07T02:29:21;96563.69;;;9.89;100.00
75290;BME280;63883;48.996;20.804;2023-05-07T02:31:47;96563.81;;;9.85;100.00
75290;BME280;63883;48.996;20.804;2023-05-07T02:34:16;96558.81;;;9.80;100.00
75290;BME280;63883;48.996;20.804;2023-05-07T02:36:42;96564.03;;;9.75;100.00
75290;BME280;63883;48.996;20.804;2023-05-07T02:39:08;96566.72;;;9.69;100.00
75290;BME280;63883;48.996;20.804;2023-05-07T02:41:34;96571.97;;;9.63;100.00
75290;BME280;63883;48.996;20.804;2023-05-07T02:44:00;96574.53;;;9.62;100.00
75290;BME280;63883;48.996;20.804;2023-05-07T02:46:26;96568.72;;;9.57;100.00
75290;BME280;63883;48.996;20.804;2023-05-07T02:48:51;96576.38;;;9.57;100.00
75290;BME280;63883;48.996;20.804;2023-05-07T02:51:20;96576.44;;;9.54;100.00
75290;BME280;63883;48.996;20.804;2023-05-07T02:53:46;96565.50;;;9.50;100.00
75290;BME280;63883;48.996;20.804;2023-05-07T02:56:11;96574.84;;;9.50;100.00
75290;BME280;63883;48.996;20.804;2023-05-07T02:58:37;96573.97;;;9.51;100.00
75290;BME280;63883;48.996;20.804;2023-05-07T03:01:05;96578.97;;;9.54;100.00
75290;BME280;63883;48.996;20.804;2023-05-07T03:03:31;96577.22;;;9.57;100.00
75290;BME280;63883;48.996;20.804;2023-05-07T03:05:57;96575.56;;;9.55;100.00
75290;BME280;63883;48.996;20.804;2023-05-07T03:08:23;96577.28;;;9.53;100.00
75290;BME280;63883;48.996;20.804;2023-05-07T03:10:50;96577.28;;;9.54;100.00
75290;BME280;63883;48.996;20.804;2023-05-07T03:13:15;96579.88;;;9.51;100.00
75290;BME280;63883;48.996;20.804;2023-05-07T03:15:41;96586.69;;;9.51;100.00
75290;BME280;63883;48.996;20.804;2023-05-07T03:18:07;96577.28;;;9.53;100.00
75290;BME280;63883;48.996;20.804;2023-05-07T03:20:33;96569.00;;;9.45;100.00
75290;BME280;63883;48.996;20.804;2023-05-07T03:22:58;96574.78;;;9.51;100.00
75290;BME280;63883;48.996;20.804;2023-05-07T03:25:24;96577.28;;;9.53;100.00
75290;BME280;63883;48.996;20.804;2023-05-07T03:27:50;96573.84;;;9.55;100.00
75290;BME280;63883;48.996;20.804;2023-05-07T03:30:16;96584.91;;;9.54;100.00
75290;BME280;63883;48.996;20.804;2023-05-07T03:32:41;96589.34;;;9.46;100.00
75290;BME280;63883;48.996;20.804;2023-05-07T03:35:07;96590.28;;;9.42;100.00
75290;BME280;63883;48.996;20.804;2023-05-07T03:37:33;96587.88;;;9.36;100.00
75290;BME280;63883;48.996;20.804;2023-05-07T03:39:59;96588.78;;;9.33;100.00
75290;BME280;63883;48.996;20.804;2023-05-07T03:42:24;96584.50;;;9.35;100.00
75290;BME280;63883;48.996;20.804;2023-05-07T03:44:50;96593.78;;;9.36;100.00
75290;BME280;63883;48.996;20.804;2023-05-07T03:47:15;96597.91;;;9.44;100.00
75290;BME280;63883;48.996;20.804;2023-05-07T03:49:41;96603.56;;;9.55;100.00
75290;BME280;63883;48.996;20.804;2023-05-07T03:52:07;96598.28;;;9.64;100.00
75290;BME280;63883;48.996;20.804;2023-05-07T03:54:33;96602.22;;;9.75;100.00
75290;BME280;63883;48.996;20.804;2023-05-07T03:56:58;96609.69;;;9.83;100.00
75290;BME280;63883;48.996;20.804;2023-05-07T03:59:24;96607.81;;;9.91;100.00
75290;BME280;63883;48.996;20.804;2023-05-07T04:01:50;96604.97;;;10.02;100.00
75290;BME280;63883;48.996;20.804;2023-05-07T04:04:16;96609.22;;;10.01;100.00
75290;BME280;63883;48.996;20.804;2023-05-07T04:06:42;96612.69;;;10.00;100.00
75290;BME280;63883;48.996;20.804;2023-05-07T04:09:08;96619.34;;;10.04;100.00
75290;BME280;63883;48.996;20.804;2023-05-07T04:11:35;96609.88;;;10.09;100.00
75290;BME280;63883;48.996;20.804;2023-05-07T04:14:01;96611.47;;;10.15;100.00
75290;BME280;63883;48.996;20.804;2023-05-07T04:16:26;96613.88;;;10.21;100.00
75290;BME280;63883;48.996;20.804;2023-05-07T04:18:52;96607.75;;;10.28;100.00
75290;BME280;63883;48.996;20.804;2023-05-07T04:21:19;96620.50;;;10.28;100.00
75290;BME280;63883;48.996;20.804;2023-05-07T04:23:46;96608.59;;;10.29;100.00
75290;BME280;63883;48.996;20.804;2023-05-07T04:26:12;96617.09;;;10.29;100.00
75290;BME280;63883;48.996;20.804;2023-05-07T04:28:38;96618.69;;;10.32;100.00
75290;BME280;63883;48.996;20.804;2023-05-07T04:31:04;96617.66;;;10.39;100.00
75290;BME280;63883;48.996;20.804;2023-05-07T04:33:31;96615.66;;;10.51;100.00
75290;BME280;63883;48.996;20.804;2023-05-07T04:35:57;96622.16;;;10.62;100.00
75290;BME280;63883;48.996;20.804;2023-05-07T04:38:29;96623.59;;;10.72;100.00
75290;BME280;63883;48.996;20.804;2023-05-07T04:40:55;96631.09;;;10.78;100.00
75290;BME280;63883;48.996;20.804;2023-05-07T04:43:21;96631.13;;;10.76;99.58
75290;BME280;63883;48.996;20.804;2023-05-07T04:45:47;96630.94;;;10.82;99.12
75290;BME280;63883;48.996;20.804;2023-05-07T04:48:14;96627.34;;;10.89;98.64
75290;BME280;63883;48.996;20.804;2023-05-07T04:50:40;96637.44;;;10.94;98.14
75290;BME280;63883;48.996;20.804;2023-05-07T04:53:06;96637.09;;;11.06;98.00
75290;BME280;63883;48.996;20.804;2023-05-07T04:55:32;96631.91;;;11.09;97.59
75290;BME280;63883;48.996;20.804;2023-05-07T04:57:57;96636.66;;;11.21;96.78
75290;BME280;63883;48.996;20.804;2023-05-07T05:00:23;96640.75;;;11.27;96.27
75290;BME280;63883;48.996;20.804;2023-05-07T05:02:49;96643.13;;;11.33;95.73
75290;BME280;63883;48.996;20.804;2023-05-07T05:05:14;96637.06;;;11.37;95.41
75290;BME280;63883;48.996;20.804;2023-05-07T05:07:40;96639.69;;;11.34;95.16
75290;BME280;63883;48.996;20.804;2023-05-07T05:10:06;96644.88;;;11.31;94.79
75290;BME280;63883;48.996;20.804;2023-05-07T05:12:32;96645.72;;;11.31;94.76
75290;BME280;63883;48.996;20.804;2023-05-07T05:14:57;96641.53;;;11.29;95.26
75290;BME280;63883;48.996;20.804;2023-05-07T05:17:23;96640.66;;;11.30;96.12
75290;BME280;63883;48.996;20.804;2023-05-07T05:19:49;96642.09;;;11.39;96.04
75290;BME280;63883;48.996;20.804;2023-05-07T05:22:15;96639.59;;;11.37;95.18
75290;BME280;63883;48.996;20.804;2023-05-07T05:24:41;96645.59;;;11.36;96.44
75290;BME280;63883;48.996;20.804;2023-05-07T05:27:06;96645.22;;;11.48;96.15
75290;BME280;63883;48.996;20.804;2023-05-07T05:29:32;96655.13;;;11.59;95.41
75290;BME280;63883;48.996;20.804;2023-05-07T05:31:57;96656.78;;;11.60;94.84
75290;BME280;63883;48.996;20.804;2023-05-07T05:34:23;96654.06;;;11.66;94.50
75290;BME280;63883;48.996;20.804;2023-05-07T05:36:49;96662.38;;;11.72;94.55
75290;BME280;63883;48.996;20.804;2023-05-07T05:39:14;96662.19;;;11.80;94.31
75290;BME280;63883;48.996;20.804;2023-05-07T05:41:40;96661.19;;;11.84;92.49
75290;BME280;63883;48.996;20.804;2023-05-07T05:44:06;96667.19;;;11.83;92.71
75290;BME280;63883;48.996;20.804;2023-05-07T05:46:32;96669.53;;;11.89;93.25
75290;BME280;63883;48.996;20.804;2023-05-07T05:48:57;96659.91;;;11.97;92.99
75290;BME280;63883;48.996;20.804;2023-05-07T05:51:23;96660.28;;;12.13;92.56
75290;BME280;63883;48.996;20.804;2023-05-07T05:53:49;96662.66;;;12.18;92.51
75290;BME280;63883;48.996;20.804;2023-05-07T05:56:15;96666.31;;;12.37;92.10
75290;BME280;63883;48.996;20.804;2023-05-07T05:58:41;96659.94;;;12.48;91.43
75290;BME280;63883;48.996;20.804;2023-05-07T06:01:07;96673.63;;;12.47;91.28
75290;BME280;63883;48.996;20.804;2023-05-07T06:03:33;96673.41;;;12.53;90.25
75290;BME280;63883;48.996;20.804;2023-05-07T06:05:59;96665.84;;;12.50;90.04
75290;BME280;63883;48.996;20.804;2023-05-07T06:08:25;96674.72;;;12.40;90.31
75290;BME280;63883;48.996;20.804;2023-05-07T06:10:51;96672.34;;;12.34;90.87
75290;BME280;63883;48.996;20.804;2023-05-07T06:13:17;96666.41;;;12.34;91.06
75290;BME280;63883;48.996;20.804;2023-05-07T06:15:43;96667.41;;;12.30;90.69
75290;BME280;63883;48.996;20.804;2023-05-07T06:18:08;96668.09;;;12.35;91.22
75290;BME280;63883;48.996;20.804;2023-05-07T06:20:34;96671.78;;;12.52;90.76
75290;BME280;63883;48.996;20.804;2023-05-07T06:22:59;96670.81;;;12.80;89.11
75290;BME280;63883;48.996;20.804;2023-05-07T06:25:25;96669.28;;;12.99;87.37
75290;BME280;63883;48.996;20.804;2023-05-07T06:27:51;96667.75;;;13.18;87.97
75290;BME280;63883;48.996;20.804;2023-05-07T06:30:17;96664.41;;;13.18;87.63
75290;BME280;63883;48.996;20.804;2023-05-07T06:32:42;96669.00;;;13.32;86.91
75290;BME280;63883;48.996;20.804;2023-05-07T06:35:08;96660.06;;;13.42;86.92
75290;BME280;63883;48.996;20.804;2023-05-07T06:37:34;96656.97;;;13.34;86.47
75290;BME280;63883;48.996;20.804;2023-05-07T06:39:59;96663.31;;;13.23;85.82
75290;BME280;63883;48.996;20.804;2023-05-07T06:42:25;96663.09;;;13.29;85.38
75290;BME280;63883;48.996;20.804;2023-05-07T06:44:52;96666.78;;;13.46;84.60
75290;BME280;63883;48.996;20.804;2023-05-07T06:47:17;96666.31;;;13.58;83.08
75290;BME280;63883;48.996;20.804;2023-05-07T06:49:43;96660.34;;;13.57;80.69
75290;BME280;63883;48.996;20.804;2023-05-07T06:52:09;96662.63;;;13.65;81.05
75290;BME280;63883;48.996;20.804;2023-05-07T06:54:35;96662.88;;;14.02;79.26
75290;BME280;63883;48.996;20.804;2023-05-07T06:57:00;96665.81;;;14.35;75.91
75290;BME280;63883;48.996;20.804;2023-05-07T06:59:26;96667.34;;;14.81;74.69
75290;BME280;63883;48.996;20.804;2023-05-07T07:01:52;96657.75;;;15.24;69.56
75290;BME280;63883;48.996;20.804;2023-05-07T07:04:17;96665.13;;;15.50;69.26
75290;BME280;63883;48.996;20.804;2023-05-07T07:06:43;96670.66;;;15.61;65.77
75290;BME280;63883;48.996;20.804;2023-05-07T07:09:09;96659.13;;;15.70;63.77
75290;BME280;63883;48.996;20.804;2023-05-07T07:11:35;96660.28;;;15.82;64.44
75290;BME280;63883;48.996;20.804;2023-05-07T07:14:00;96659.78;;;15.74;67.23
75290;BME280;63883;48.996;20.804;2023-05-07T07:16:26;96671.69;;;15.57;68.22
75290;BME280;63883;48.996;20.804;2023-05-07T07:18:52;96665.56;;;15.41;65.84
75290;BME280;63883;48.996;20.804;2023-05-07T07:21:17;96671.25;;;15.48;69.03
75290;BME280;63883;48.996;20.804;2023-05-07T07:23:43;96664.88;;;15.56;67.73
75290;BME280;63883;48.996;20.804;2023-05-07T07:26:09;96677.78;;;15.92;63.81
75290;BME280;63883;48.996;20.804;2023-05-07T07:28:35;96665.69;;;16.48;65.99
75290;BME280;63883;48.996;20.804;2023-05-07T07:31:00;96663.50;;;16.74;60.28
75290;BME280;63883;48.996;20.804;2023-05-07T07:33:26;96669.34;;;16.78;61.58
75290;BME280;63883;48.996;20.804;2023-05-07T07:35:52;96669.69;;;16.53;62.22
75290;BME280;63883;48.996;20.804;2023-05-07T07:38:17;96668.31;;;16.29;63.31
75290;BME280;63883;48.996;20.804;2023-05-07T07:40:43;96667.59;;;16.08;62.52
75290;BME280;63883;48.996;20.804;2023-05-07T07:43:09;96663.22;;;16.10;62.30
75290;BME280;63883;48.996;20.804;2023-05-07T07:45:35;96660.94;;;16.04;60.04
75290;BME280;63883;48.996;20.804;2023-05-07T07:48:01;96662.00;;;16.17;61.42
75290;BME280;63883;48.996;20.804;2023-05-07T07:50:26;96657.94;;;16.30;61.67
75290;BME280;63883;48.996;20.804;2023-05-07T07:52:52;96654.34;;;16.69;59.38
75290;BME280;63883;48.996;20.804;2023-05-07T07:55:20;96656.66;;;16.91;59.21
75290;BME280;63883;48.996;20.804;2023-05-07T07:57:49;96650.00;;;17.20;59.62
75290;BME280;63883;48.996;20.804;2023-05-07T08:00:15;96656.25;;;17.64;60.10
75290;BME280;63883;48.996;20.804;2023-05-07T08:02:42;96649.25;;;17.82;56.52
75290;BME280;63883;48.996;20.804;2023-05-07T08:05:07;96641.84;;;17.91;58.19
75290;BME280;63883;48.996;20.804;2023-05-07T08:07:33;96648.47;;;18.11;57.07
75290;BME280;63883;48.996;20.804;2023-05-07T08:09:59;96643.56;;;18.07;54.32
75290;BME280;63883;48.996;20.804;2023-05-07T08:12:25;96649.56;;;18.07;54.27
75290;BME280;63883;48.996;20.804;2023-05-07T08:14:51;96641.22;;;18.02;53.68
75290;BME280;63883;48.996;20.804;2023-05-07T08:17:16;96634.97;;;18.22;54.03
75290;BME280;63883;48.996;20.804;2023-05-07T08:19:42;96642.84;;;18.34;53.31
75290;BME280;63883;48.996;20.804;2023-05-07T08:22:09;96642.56;;;18.39;53.25
75290;BME280;63883;48.996;20.804;2023-05-07T08:24:36;96629.88;;;18.50;53.58
75290;BME280;63883;48.996;20.804;2023-05-07T08:27:02;96634.13;;;18.51;54.32
75290;BME280;63883;48.996;20.804;2023-05-07T08:29:27;96639.56;;;18.77;53.98
75290;BME280;63883;48.996;20.804;2023-05-07T08:31:53;96633.06;;;18.69;52.34
75290;BME280;63883;48.996;20.804;2023-05-07T08:34:19;96640.16;;;18.66;51.82
75290;BME280;63883;48.996;20.804;2023-05-07T08:36:45;96647.59;;;18.72;49.85
75290;BME280;63883;48.996;20.804;2023-05-07T08:39:15;96649.41;;;18.70;51.22
75290;BME280;63883;48.996;20.804;2023-05-07T08:41:45;96648.72;;;18.96;51.97
75290;BME280;63883;48.996;20.804;2023-05-07T08:44:12;96647.78;;;18.53;51.56
75290;BME280;63883;48.996;20.804;2023-05-07T08:46:40;96644.28;;;18.54;51.25
75290;BME280;63883;48.996;20.804;2023-05-07T08:49:07;96645.34;;;18.66;51.69
75290;BME280;63883;48.996;20.804;2023-05-07T08:51:33;96648.59;;;18.69;51.64
75290;BME280;63883;48.996;20.804;2023-05-07T08:53:59;96646.41;;;18.92;50.92
75290;BME280;63883;48.996;20.804;2023-05-07T08:56:26;96653.31;;;18.91;49.62
75290;BME280;63883;48.996;20.804;2023-05-07T08:58:52;96657.63;;;18.47;50.17
75290;BME280;63883;48.996;20.804;2023-05-07T09:01:21;96656.59;;;18.35;52.30
75290;BME280;63883;48.996;20.804;2023-05-07T09:03:47;96655.44;;;18.25;52.45
75290;BME280;63883;48.996;20.804;2023-05-07T09:06:15;96656.53;;;18.21;51.48
75290;BME280;63883;48.996;20.804;2023-05-07T09:08:49;96660.19;;;18.17;52.68
75290;BME280;63883;48.996;20.804;2023-05-07T09:11:16;96663.38;;;18.22;52.05
75290;BME280;63883;48.996;20.804;2023-05-07T09:13:42;96660.19;;;18.17;52.15
75290;BME280;63883;48.996;20.804;2023-05-07T09:16:11;96649.63;;;18.51;52.42
75290;BME280;63883;48.996;20.804;2023-05-07T09:18:43;96660.06;;;18.94;51.85
75290;BME280;63883;48.996;20.804;2023-05-07T09:21:11;96662.09;;;18.89;51.01
75290;BME280;63883;48.996;20.804;2023-05-07T09:23:39;96657.28;;;18.97;51.65
75290;BME280;63883;48.996;20.804;2023-05-07T09:26:06;96662.38;;;19.27;48.59
75290;BME280;63883;48.996;20.804;2023-05-07T09:28:38;96657.03;;;19.44;49.42
75290;BME280;63883;48.996;20.804;2023-05-07T09:31:05;96655.53;;;19.68;49.43
75290;BME280;63883;48.996;20.804;2023-05-07T09:33:31;96654.53;;;19.42;49.22
75290;BME280;63883;48.996;20.804;2023-05-07T09:35:57;96655.66;;;19.53;49.15
75290;BME280;63883;48.996;20.804;2023-05-07T09:38:22;96651.47;;;19.78;47.02
75290;BME280;63883;48.996;20.804;2023-05-07T09:41:11;96652.50;;;20.30;46.98
75290;BME280;63883;48.996;20.804;2023-05-07T09:43:38;96658.19;;;20.61;45.64
75290;BME280;63883;48.996;20.804;2023-05-07T09:46:14;96654.75;;;20.61;45.56
75290;BME280;63883;48.996;20.804;2023-05-07T09:48:43;96660.31;;;20.94;44.18
75290;BME280;63883;48.996;20.804;2023-05-07T09:53:46;96652.09;;;21.00;44.44
75290;BME280;63883;48.996;20.804;2023-05-07T09:56:13;96663.00;;;20.80;44.64
75290;BME280;63883;48.996;20.804;2023-05-07T09:58:41;96657.66;;;20.30;44.72
75290;BME280;63883;48.996;20.804;2023-05-07T10:01:07;96663.78;;;20.55;44.94
75290;BME280;63883;48.996;20.804;2023-05-07T10:03:35;96663.59;;;19.35;46.37
75290;BME280;63883;48.996;20.804;2023-05-07T10:06:03;96669.66;;;18.92;47.10
75290;BME280;63883;48.996;20.804;2023-05-07T10:08:30;96680.81;;;17.71;49.19
75290;BME280;63883;48.996;20.804;2023-05-07T10:10:56;96680.69;;;16.91;51.27
75290;BME280;63883;48.996;20.804;2023-05-07T10:13:22;96679.47;;;16.81;52.75
75290;BME280;63883;48.996;20.804;2023-05-07T10:15:49;96672.78;;;16.94;52.20
75290;BME280;63883;48.996;20.804;2023-05-07T10:18:16;96679.91;;;17.55;51.82
75290;BME280;63883;48.996;20.804;2023-05-07T10:20:45;96686.63;;;17.75;50.92
75290;BME280;63883;48.996;20.804;2023-05-07T10:23:14;96688.03;;;17.80;51.16
75290;BME280;63883;48.996;20.804;2023-05-07T10:25:43;96686.94;;;18.61;50.18
75290;BME280;63883;48.996;20.804;2023-05-07T10:28:10;96687.19;;;19.59;47.51
75290;BME280;63883;48.996;20.804;2023-05-07T10:33:42;96691.94;;;19.08;46.65
75290;BME280;63883;48.996;20.804;2023-05-07T10:36:11;96694.91;;;19.31;45.84
75290;BME280;63883;48.996;20.804;2023-05-07T10:38:36;96690.50;;;18.75;46.33
75290;BME280;63883;48.996;20.804;2023-05-07T10:41:02;96688.94;;;18.72;47.66
75290;BME280;63883;48.996;20.804;2023-05-07T10:43:38;96695.72;;;18.43;48.17
75290;BME280;63883;48.996;20.804;2023-05-07T10:46:21;96692.19;;;18.60;47.27
75290;BME280;63883;48.996;20.804;2023-05-07T10:51:30;96688.19;;;18.70;47.07
75290;BME280;63883;48.996;20.804;2023-05-07T10:56:41;96704.53;;;18.55;47.11
75290;BME280;63883;48.996;20.804;2023-05-07T11:01:59;96711.84;;;18.17;48.07
75290;BME280;63883;48.996;20.804;2023-05-07T11:04:25;96707.91;;;18.57;47.12
75290;BME280;63883;48.996;20.804;2023-05-07T11:12:45;96719.69;;;18.15;47.54
75290;BME280;63883;48.996;20.804;2023-05-07T11:15:07;96724.28;;;18.71;46.61
75290;BME280;63883;48.996;20.804;2023-05-07T11:17:35;96726.06;;;17.44;48.96
75290;BME280;63883;48.996;20.804;2023-05-07T11:20:17;96730.59;;;16.18;50.73
75290;BME280;63883;48.996;20.804;2023-05-07T11:22:43;96732.88;;;15.49;52.69
75290;BME280;63883;48.996;20.804;2023-05-07T11:25:08;96734.53;;;15.50;53.42
75290;BME280;63883;48.996;20.804;2023-05-07T11:27:34;96736.84;;;15.17;54.24
75290;BME280;63883;48.996;20.804;2023-05-07T11:30:00;96749.69;;;15.17;54.58
75290;BME280;63883;48.996;20.804;2023-05-07T11:32:29;96755.44;;;15.04;54.09
75290;BME280;63883;48.996;20.804;2023-05-07T11:34:56;96755.28;;;14.87;55.02
75290;BME280;63883;48.996;20.804;2023-05-07T11:37:23;96764.00;;;14.62;55.57
75290;BME280;63883;48.996;20.804;2023-05-07T11:39:49;96765.13;;;14.55;55.27
75290;BME280;63883;48.996;20.804;2023-05-07T11:42:33;96775.78;;;14.46;55.69
75290;BME280;63883;48.996;20.804;2023-05-07T11:45:00;96776.56;;;14.25;55.48
75290;BME280;63883;48.996;20.804;2023-05-07T11:47:29;96778.63;;;14.38;55.62
75290;BME280;63883;48.996;20.804;2023-05-07T11:49:55;96784.81;;;14.33;55.03
75290;BME280;63883;48.996;20.804;2023-05-07T11:52:23;96785.72;;;14.32;54.83
75290;BME280;63883;48.996;20.804;2023-05-07T11:54:52;96790.78;;;14.55;55.08
75290;BME280;63883;48.996;20.804;2023-05-07T11:57:19;96783.63;;;14.63;54.59
75290;BME280;63883;48.996;20.804;2023-05-07T11:59:45;96803.31;;;14.63;54.06
75290;BME280;63883;48.996;20.804;2023-05-07T12:02:13;96787.22;;;14.59;54.40
75290;BME280;63883;48.996;20.804;2023-05-07T12:04:40;96797.25;;;14.65;53.72
75290;BME280;63883;48.996;20.804;2023-05-07T12:07:11;96808.75;;;14.77;53.47
75290;BME280;63883;48.996;20.804;2023-05-07T12:09:37;96803.88;;;14.49;53.69
75290;BME280;63883;48.996;20.804;2023-05-07T12:12:04;96798.81;;;14.02;54.95
75290;BME280;63883;48.996;20.804;2023-05-07T12:14:29;96810.28;;;13.92;55.77
75290;BME280;63883;48.996;20.804;2023-05-07T12:16:56;96825.94;;;14.08;54.56
75290;BME280;63883;48.996;20.804;2023-05-07T12:19:22;96812.59;;;14.22;54.80
75290;BME280;63883;48.996;20.804;2023-05-07T12:21:48;96811.16;;;14.15;54.11
75290;BME280;63883;48.996;20.804;2023-05-07T12:24:16;96828.78;;;14.00;54.71
75290;BME280;63883;48.996;20.804;2023-05-07T12:26:43;96823.16;;;13.67;55.76
75290;BME280;63883;48.996;20.804;2023-05-07T12:29:08;96822.38;;;13.41;55.78
75290;BME280;63883;48.996;20.804;2023-05-07T12:31:34;96825.03;;;13.39;56.61
75290;BME280;63883;48.996;20.804;2023-05-07T12:34:00;96833.25;;;13.72;56.28
75290;BME280;63883;48.996;20.804;2023-05-07T12:36:26;96840.94;;;13.72;54.65
75290;BME280;63883;48.996;20.804;2023-05-07T12:38:54;96825.25;;;13.81;54.85
75290;BME280;63883;48.996;20.804;2023-05-07T12:41:20;96843.50;;;13.72;55.08
75290;BME280;63883;48.996;20.804;2023-05-07T12:43:56;96829.81;;;13.48;56.23
75290;BME280;63883;48.996;20.804;2023-05-07T12:46:22;96846.16;;;13.46;56.13
75290;BME280;63883;48.996;20.804;2023-05-07T12:48:48;96839.34;;;13.45;56.53
75290;BME280;63883;48.996;20.804;2023-05-07T12:51:15;96839.56;;;13.39;56.12
75290;BME280;63883;48.996;20.804;2023-05-07T12:53:41;96841.25;;;13.40;56.54
75290;BME280;63883;48.996;20.804;2023-05-07T12:56:08;96837.47;;;13.25;56.78
75290;BME280;63883;48.996;20.804;2023-05-07T12:58:35;96840.31;;;13.41;57.02
75290;BME280;63883;48.996;20.804;2023-05-07T13:01:04;96847.75;;;13.23;57.32
75290;BME280;63883;48.996;20.804;2023-05-07T13:03:32;96841.25;;;13.13;57.16
75290;BME280;63883;48.996;20.804;2023-05-07T13:06:00;96855.06;;;13.08;57.32